Terminal Aerodrome Forecast
Issued by NWS Tampa Bay Area, FL

Home | Current Version | Previous Version | Text Only | Print | Product List | Glossary On
Versions: 1 2 3 4 5 6 7 8 9 10 11 12 13 14 15 16 17 18 19 20 21 22 23 24
476
FTUS42 KTBW 300908 AAA
TAFTPA
TAF AMD
KTPA 300908Z 3009/3106 VRB03KT P6SM FEW030 SCT200
     FM301600 25007KT P6SM VCTS BKN040CB
     FM310000 31006KT P6SM FEW070 SCT120=

USA.gov is the U.S. government's official web portal to all federal, state and local government web resources and services.